Time;durP1;ratioP1;P1;durP2;ratioP2;P2;SDS_P1;SDS_P2;PMS_P1;PMS_P2;Temp;Humidity;BMP_temperature;BMP_pressure;BME280_temperature;BME280_humidity;BME280_pressure;Samples;Min_cycle;Max_cycle;Signal;HPM_P1;HPM_P2
2021/12/30 00:00:16;;;;;;;58.90;2.77;;;;;;;;;;5135427;27;20988;-65
2021/12/30 00:02:43;;;;;;;57.97;2.70;;;;;;;;;;5135248;27;20481;-68
2021/12/30 00:05:14;;;;;;;58.50;2.77;;;;;;;;;;5135339;27;20463;-64
2021/12/30 00:07:41;;;;;;;58.30;2.80;;;;;;;;;;5135201;27;20449;-64
2021/12/30 00:10:09;;;;;;;57.77;2.60;;;;;;;;;;5135232;27;20867;-64
2021/12/30 00:12:36;;;;;;;58.30;2.60;;;;;;;;;;5135171;27;20443;-65
2021/12/30 00:15:04;;;;;;;57.77;2.80;;;;;;;;;;5135094;27;20472;-64
2021/12/30 00:17:31;;;;;;;58.10;2.90;;;;;;;;;;5134863;27;20921;-65
2021/12/30 00:19:59;;;;;;;57.97;2.67;;;;;;;;;;5135306;27;20447;-65
2021/12/30 00:22:28;;;;;;;58.20;2.80;;;;;;;;;;5136668;27;20512;-66
2021/12/30 00:24:55;;;;;;;59.17;2.97;;;;;;;;;;5139481;27;20445;-64
2021/12/30 00:27:22;;;;;;;58.17;2.80;;;;;;;;;;5139704;27;20441;-66
2021/12/30 00:29:49;;;;;;;58.53;2.80;;;;;;;;;;5140246;27;20445;-65
2021/12/30 00:32:16;;;;;;;58.90;2.73;;;;;;;;;;5140045;27;20543;-65
2021/12/30 00:34:44;;;;;;;60.87;2.60;;;;;;;;;;5140997;27;20495;-64
2021/12/30 00:37:11;;;;;;;60.87;2.87;;;;;;;;;;5137633;27;20548;-65
2021/12/30 00:39:40;;;;;;;58.30;2.87;;;;;;;;;;5134750;27;20811;-64
2021/12/30 00:42:07;;;;;;;59.57;2.70;;;;;;;;;;5134376;27;20557;-64
2021/12/30 00:44:34;;;;;;;59.07;2.80;;;;;;;;;;5134674;27;20453;-67
2021/12/30 00:47:03;;;;;;;58.87;2.97;;;;;;;;;;5134471;27;20963;-64
2021/12/30 00:49:30;;;;;;;58.50;3.03;;;;;;;;;;5134412;27;20485;-65
2021/12/30 00:51:57;;;;;;;59.40;3.27;;;;;;;;;;5134370;27;20469;-65
2021/12/30 00:54:24;;;;;;;58.80;3.13;;;;;;;;;;5134216;27;20541;-67
2021/12/30 00:56:53;;;;;;;57.97;2.70;;;;;;;;;;5134553;27;20548;-65
2021/12/30 00:59:20;;;;;;;58.40;2.90;;;;;;;;;;5134272;27;20441;-65
2021/12/30 01:01:47;;;;;;;59.77;3.50;;;;;;;;;;5134104;27;20498;-65
2021/12/30 01:04:15;;;;;;;58.67;3.27;;;;;;;;;;5134058;27;20520;-64
2021/12/30 01:06:42;;;;;;;59.17;3.30;;;;;;;;;;5134137;27;20452;-65
2021/12/30 01:09:09;;;;;;;58.27;2.90;;;;;;;;;;5133687;27;20451;-67
2021/12/30 01:11:36;;;;;;;61.97;3.13;;;;;;;;;;5133926;27;20461;-65
2021/12/30 01:14:14;;;;;;;59.57;2.90;;;;;;;;;;5133819;27;20441;-65
2021/12/30 01:16:44;;;;;;;58.90;3.07;;;;;;;;;;5134113;27;20540;-65
2021/12/30 01:19:23;;;;;;;59.10;3.67;;;;;;;;;;5133661;27;21077;-65
2021/12/30 01:21:52;;;;;;;58.80;2.90;;;;;;;;;;5133777;27;20460;-65
2021/12/30 01:24:19;;;;;;;58.60;2.83;;;;;;;;;;5133812;27;20568;-65
2021/12/30 01:26:46;;;;;;;60.63;3.13;;;;;;;;;;5133903;27;20490;-65
2021/12/30 01:29:14;;;;;;;58.10;2.80;;;;;;;;;;5133564;27;20699;-65
2021/12/30 01:31:42;;;;;;;59.37;2.90;;;;;;;;;;5133589;27;20500;-66
2021/12/30 01:34:09;;;;;;;59.03;2.93;;;;;;;;;;5133445;27;20445;-64
2021/12/30 01:36:36;;;;;;;58.50;3.20;;;;;;;;;;5133480;27;20532;-65
2021/12/30 01:39:03;;;;;;;58.50;3.00;;;;;;;;;;5133465;27;20441;-65
2021/12/30 01:41:30;;;;;;;58.70;3.03;;;;;;;;;;5133653;27;20886;-65
2021/12/30 01:43:57;;;;;;;59.47;2.90;;;;;;;;;;5132517;27;20856;-64
2021/12/30 01:46:26;;;;;;;58.90;3.03;;;;;;;;;;5133323;27;20540;-64
2021/12/30 01:48:53;;;;;;;59.27;2.90;;;;;;;;;;5133326;27;20447;-65
2021/12/30 01:51:20;;;;;;;60.83;2.83;;;;;;;;;;5133405;27;20467;-65
2021/12/30 01:53:47;;;;;;;58.90;2.83;;;;;;;;;;5133363;27;20547;-65
2021/12/30 01:56:14;;;;;;;59.80;2.90;;;;;;;;;;5133108;27;20449;-65
2021/12/30 01:58:41;;;;;;;59.80;2.97;;;;;;;;;;5132945;27;20441;-64
2021/12/30 02:01:09;;;;;;;59.27;3.20;;;;;;;;;;5132950;27;21010;-64
2021/12/30 02:03:37;;;;;;;60.47;3.40;;;;;;;;;;5133099;27;20480;-65
2021/12/30 02:06:04;;;;;;;58.70;3.00;;;;;;;;;;5133096;27;20452;-67
2021/12/30 02:08:32;;;;;;;58.70;3.40;;;;;;;;;;5132895;27;20445;-64
2021/12/30 02:10:59;;;;;;;60.60;3.47;;;;;;;;;;5132888;27;20552;-64
2021/12/30 02:13:26;;;;;;;59.90;2.80;;;;;;;;;;5132952;27;20520;-64
2021/12/30 02:16:00;;;;;;;58.23;2.70;;;;;;;;;;5132915;27;20441;-64
2021/12/30 02:18:27;;;;;;;60.10;3.10;;;;;;;;;;5133078;27;20452;-66
2021/12/30 02:20:56;;;;;;;60.87;3.57;;;;;;;;;;5132799;27;20980;-64
2021/12/30 02:23:24;;;;;;;58.50;3.00;;;;;;;;;;5132903;27;20847;-65
2021/12/30 02:25:52;;;;;;;59.07;2.90;;;;;;;;;;5132790;27;20451;-65
2021/12/30 02:28:22;;;;;;;64.37;3.30;;;;;;;;;;5132524;27;20441;-65
2021/12/30 02:30:50;;;;;;;58.50;3.00;;;;;;;;;;5132715;27;20499;-66
2021/12/30 02:33:17;;;;;;;59.57;3.10;;;;;;;;;;5132809;27;20445;-66
2021/12/30 02:35:45;;;;;;;58.83;2.90;;;;;;;;;;5132862;27;20816;-65
2021/12/30 02:38:13;;;;;;;58.17;3.00;;;;;;;;;;5132490;27;20445;-64
2021/12/30 02:40:42;;;;;;;59.67;3.00;;;;;;;;;;5132576;27;20514;-65
2021/12/30 02:43:13;;;;;;;62.77;3.00;;;;;;;;;;5132729;27;20571;-65
2021/12/30 02:45:40;;;;;;;61.50;3.03;;;;;;;;;;5132854;27;20527;-65
2021/12/30 02:48:07;;;;;;;59.13;2.70;;;;;;;;;;5132521;27;20453;-65
2021/12/30 02:50:34;;;;;;;59.20;3.23;;;;;;;;;;5132692;27;20548;-64
2021/12/30 02:53:01;;;;;;;58.80;2.90;;;;;;;;;;5132602;27;20471;-65
2021/12/30 02:55:30;;;;;;;61.40;3.13;;;;;;;;;;5134350;27;20535;-65
2021/12/30 02:57:57;;;;;;;57.87;2.70;;;;;;;;;;5134860;27;20449;-65
2021/12/30 03:00:24;;;;;;;59.63;2.73;;;;;;;;;;5136671;27;20547;-65
2021/12/30 03:02:51;;;;;;;58.60;2.60;;;;;;;;;;5136387;27;20448;-65
2021/12/30 03:05:20;;;;;;;59.70;2.80;;;;;;;;;;5136382;27;20465;-65
2021/12/30 03:07:48;;;;;;;59.97;2.97;;;;;;;;;;5136385;27;20484;-64
2021/12/30 03:10:16;;;;;;;57.77;2.70;;;;;;;;;;5136355;27;20543;-65
2021/12/30 03:12:45;;;;;;;58.87;3.20;;;;;;;;;;5136299;27;20441;-65
2021/12/30 03:15:13;;;;;;;57.70;2.63;;;;;;;;;;5136339;27;20445;-64
2021/12/30 03:17:40;;;;;;;58.30;2.83;;;;;;;;;;5136071;27;20445;-65
2021/12/30 03:20:09;;;;;;;59.13;2.93;;;;;;;;;;5136118;27;20540;-65
2021/12/30 03:22:36;;;;;;;59.50;3.10;;;;;;;;;;5136329;27;20449;-65
2021/12/30 03:25:04;;;;;;;59.30;2.97;;;;;;;;;;5136024;27;20484;-64
2021/12/30 03:27:31;;;;;;;58.37;2.60;;;;;;;;;;5135967;27;20800;-65
2021/12/30 03:29:59;;;;;;;60.17;2.93;;;;;;;;;;5136015;27;20445;-65
2021/12/30 03:32:27;;;;;;;58.10;2.60;;;;;;;;;;5135815;27;20524;-67
2021/12/30 03:34:54;;;;;;;58.10;2.87;;;;;;;;;;5135996;27;20956;-65
2021/12/30 03:37:21;;;;;;;58.10;2.70;;;;;;;;;;5135805;27;20870;-66
2021/12/30 03:39:48;;;;;;;57.80;2.53;;;;;;;;;;5135884;27;20532;-65
2021/12/30 03:42:16;;;;;;;58.40;2.70;;;;;;;;;;5135677;27;20464;-65
2021/12/30 03:44:43;;;;;;;58.07;2.60;;;;;;;;;;5135729;27;20481;-67
2021/12/30 03:47:16;;;;;;;59.50;2.70;;;;;;;;;;5135399;27;20448;-66
2021/12/30 03:49:44;;;;;;;58.50;2.70;;;;;;;;;;5135894;27;20502;-66
2021/12/30 03:52:15;;;;;;;58.30;2.70;;;;;;;;;;5135619;27;20469;-66
2021/12/30 03:54:42;;;;;;;58.00;2.50;;;;;;;;;;5135605;27;20452;-65
2021/12/30 03:57:09;;;;;;;58.10;2.57;;;;;;;;;;5135410;27;20933;-64
2021/12/30 03:59:36;;;;;;;57.90;2.60;;;;;;;;;;5135371;27;20535;-65
2021/12/30 04:02:03;;;;;;;58.10;2.57;;;;;;;;;;5135562;27;20485;-67
2021/12/30 04:04:32;;;;;;;58.17;2.63;;;;;;;;;;5135326;27;20953;-64
2021/12/30 04:06:59;;;;;;;57.88;2.60;;;;;;;;;;5134242;27;20536;-65
2021/12/30 04:09:27;;;;;;;59.17;2.80;;;;;;;;;;5135136;27;20541;-65
2021/12/30 04:11:54;;;;;;;57.80;2.70;;;;;;;;;;5135594;27;20468;-66
2021/12/30 04:14:22;;;;;;;58.20;2.63;;;;;;;;;;5135393;27;20441;-65
2021/12/30 04:16:49;;;;;;;58.57;2.80;;;;;;;;;;5135183;27;20457;-68
2021/12/30 04:19:17;;;;;;;58.77;2.80;;;;;;;;;;5134841;27;21002;-66
2021/12/30 04:21:45;;;;;;;58.50;2.97;;;;;;;;;;5135041;27;20465;-68
2021/12/30 04:24:12;;;;;;;58.60;2.80;;;;;;;;;;5134896;27;20481;-66
2021/12/30 04:26:40;;;;;;;58.67;3.10;;;;;;;;;;5134841;27;20445;-65
2021/12/30 04:29:07;;;;;;;59.30;3.17;;;;;;;;;;5134664;27;20445;-66
2021/12/30 04:31:35;;;;;;;58.50;2.80;;;;;;;;;;5134941;27;20827;-67
2021/12/30 04:34:02;;;;;;;58.60;3.07;;;;;;;;;;5134920;27;20452;-65
2021/12/30 04:36:29;;;;;;;58.67;3.10;;;;;;;;;;5134720;27;20441;-66
2021/12/30 04:38:57;;;;;;;58.10;2.87;;;;;;;;;;5134494;27;20441;-68
2021/12/30 04:41:25;;;;;;;58.10;2.77;;;;;;;;;;5134557;27;20552;-65
2021/12/30 04:43:52;;;;;;;58.97;2.93;;;;;;;;;;5134498;27;20601;-65
2021/12/30 04:46:19;;;;;;;58.17;2.80;;;;;;;;;;5134680;27;20446;-65
2021/12/30 04:48:47;;;;;;;60.00;3.17;;;;;;;;;;5134444;27;20468;-65
2021/12/30 04:51:14;;;;;;;61.80;3.10;;;;;;;;;;5134426;27;20471;-65
2021/12/30 04:53:41;;;;;;;58.27;2.90;;;;;;;;;;5134716;27;20445;-65
2021/12/30 04:56:10;;;;;;;58.10;2.80;;;;;;;;;;5134650;27;20441;-65
2021/12/30 04:58:37;;;;;;;59.10;3.70;;;;;;;;;;5134213;27;20873;-65
2021/12/30 05:01:04;;;;;;;58.70;2.80;;;;;;;;;;5134390;27;20841;-65
2021/12/30 05:03:32;;;;;;;58.57;2.80;;;;;;;;;;5134007;27;20449;-65
2021/12/30 05:05:59;;;;;;;59.10;3.00;;;;;;;;;;5134173;27;20533;-66
2021/12/30 05:08:27;;;;;;;59.47;2.90;;;;;;;;;;5134210;27;20811;-65
2021/12/30 05:10:54;;;;;;;58.93;2.90;;;;;;;;;;5134191;27;20877;-65
2021/12/30 05:13:23;;;;;;;58.67;3.23;;;;;;;;;;5133944;27;20445;-66
2021/12/30 05:15:50;;;;;;;58.23;2.77;;;;;;;;;;5134097;27;20451;-65
2021/12/30 05:18:19;;;;;;;58.30;2.90;;;;;;;;;;5133668;27;20445;-66
2021/12/30 05:20:46;;;;;;;58.30;2.63;;;;;;;;;;5133710;27;20465;-65
2021/12/30 05:23:13;;;;;;;58.60;2.80;;;;;;;;;;5133773;27;20441;-64
2021/12/30 05:25:40;;;;;;;58.00;2.70;;;;;;;;;;5133883;27;20571;-65
2021/12/30 05:28:07;;;;;;;58.17;2.90;;;;;;;;;;5133622;27;20445;-67
2021/12/30 05:30:37;;;;;;;58.20;2.83;;;;;;;;;;5133566;27;20465;-66
2021/12/30 05:33:05;;;;;;;58.40;3.00;;;;;;;;;;5133515;27;20448;-66
2021/12/30 05:35:32;;;;;;;58.70;3.20;;;;;;;;;;5133448;27;20449;-66
2021/12/30 05:38:01;;;;;;;58.40;2.90;;;;;;;;;;5133471;27;20441;-66
2021/12/30 05:40:29;;;;;;;59.07;3.27;;;;;;;;;;5133439;27;21050;-66
2021/12/30 05:42:56;;;;;;;58.50;2.93;;;;;;;;;;5133503;27;20449;-67
2021/12/30 05:45:23;;;;;;;58.30;2.83;;;;;;;;;;5133330;27;20491;-66
2021/12/30 05:47:52;;;;;;;57.97;2.70;;;;;;;;;;5132945;27;20536;-66
2021/12/30 05:50:20;;;;;;;58.20;3.10;;;;;;;;;;5133388;27;20468;-65
2021/12/30 05:52:48;;;;;;;59.50;3.00;;;;;;;;;;5133410;27;20445;-66
2021/12/30 05:55:15;;;;;;;58.33;3.00;;;;;;;;;;5133235;27;20449;-66
2021/12/30 05:57:43;;;;;;;59.10;2.80;;;;;;;;;;5132988;27;20456;-66
2021/12/30 06:00:11;;;;;;;58.60;3.10;;;;;;;;;;5133135;27;20540;-66
2021/12/30 06:02:38;;;;;;;58.50;3.27;;;;;;;;;;5133100;27;20441;-67
2021/12/30 06:05:07;;;;;;;59.60;3.50;;;;;;;;;;5132814;27;20480;-65
2021/12/30 06:07:35;;;;;;;62.47;4.03;;;;;;;;;;5132947;27;20445;-66
2021/12/30 06:10:02;;;;;;;59.17;3.10;;;;;;;;;;5133032;27;20531;-65
2021/12/30 06:12:29;;;;;;;58.37;3.43;;;;;;;;;;5132957;27;20440;-66
2021/12/30 06:14:57;;;;;;;59.20;3.43;;;;;;;;;;5132907;27;20544;-65
2021/12/30 06:17:24;;;;;;;59.00;3.93;;;;;;;;;;5132916;27;20535;-65
2021/12/30 06:19:51;;;;;;;64.43;3.87;;;;;;;;;;5132988;27;20444;-66
2021/12/30 06:22:20;;;;;;;58.77;3.27;;;;;;;;;;5132739;27;21035;-66
2021/12/30 06:24:47;;;;;;;59.03;3.80;;;;;;;;;;5132795;27;21068;-67
2021/12/30 06:27:14;;;;;;;60.30;3.63;;;;;;;;;;5132672;27;20879;-64
2021/12/30 06:29:41;;;;;;;58.17;3.10;;;;;;;;;;5132187;27;20437;-66
2021/12/30 06:32:08;;;;;;;58.97;3.50;;;;;;;;;;5132998;27;20468;-64
2021/12/30 06:34:35;;;;;;;58.80;3.50;;;;;;;;;;5132840;27;20450;-64
2021/12/30 06:37:03;;;;;;;58.50;3.03;;;;;;;;;;5132891;27;20816;-64
2021/12/30 06:39:31;;;;;;;59.87;3.27;;;;;;;;;;5132608;27;20527;-65
2021/12/30 06:41:58;;;;;;;60.13;3.80;;;;;;;;;;5132660;27;20471;-65
2021/12/30 06:44:25;;;;;;;57.87;2.80;;;;;;;;;;5132494;27;20568;-66
2021/12/30 06:46:57;;;;;;;61.60;3.00;;;;;;;;;;5132823;27;20449;-65
2021/12/30 06:49:24;;;;;;;61.70;3.10;;;;;;;;;;5132530;27;20452;-65
2021/12/30 06:51:51;;;;;;;58.90;3.20;;;;;;;;;;5132688;27;20555;-64
2021/12/30 06:54:19;;;;;;;57.87;2.53;;;;;;;;;;5132544;27;20445;-64
2021/12/30 06:56:47;;;;;;;58.00;2.80;;;;;;;;;;5132483;27;20453;-67
2021/12/30 06:59:15;;;;;;;57.90;2.70;;;;;;;;;;5132507;27;20497;-65
2021/12/30 07:01:42;;;;;;;58.77;2.90;;;;;;;;;;5132414;27;20969;-65
2021/12/30 07:04:09;;;;;;;58.57;3.00;;;;;;;;;;5132357;27;20941;-65
2021/12/30 07:06:37;;;;;;;58.80;3.23;;;;;;;;;;5132545;27;20441;-65
2021/12/30 07:09:04;;;;;;;58.50;3.10;;;;;;;;;;5132138;27;20532;-65
2021/12/30 07:11:31;;;;;;;57.70;2.70;;;;;;;;;;5132296;27;20465;-64
2021/12/30 07:13:59;;;;;;;58.07;2.60;;;;;;;;;;5132605;27;20445;-66
2021/12/30 07:16:27;;;;;;;58.60;2.80;;;;;;;;;;5132482;27;20448;-65
2021/12/30 07:18:54;;;;;;;57.80;2.50;;;;;;;;;;5132163;27;20540;-65
2021/12/30 07:21:21;;;;;;;58.20;2.70;;;;;;;;;;5132358;27;20469;-65
2021/12/30 07:23:48;;;;;;;57.90;2.60;;;;;;;;;;5132135;27;20459;-67
2021/12/30 07:26:15;;;;;;;56.63;2.55;;;;;;;;;;5132377;27;20480;-65
2021/12/30 07:28:42;;;;;;;59.07;2.90;;;;;;;;;;5132095;27;20210;-67
2021/12/30 07:31:11;;;;;;;57.90;2.70;;;;;;;;;;5132159;27;20991;-65
2021/12/30 07:33:38;;;;;;;57.57;2.70;;;;;;;;;;5132225;27;20900;-65
2021/12/30 07:36:05;;;;;;;57.63;2.40;;;;;;;;;;5132069;27;21004;-65
2021/12/30 07:38:33;;;;;;;58.30;2.50;;;;;;;;;;5131887;27;20441;-65
2021/12/30 07:41:00;;;;;;;58.73;2.63;;;;;;;;;;5132064;27;20547;-65
2021/12/30 07:43:27;;;;;;;57.67;2.70;;;;;;;;;;5135454;27;20540;-66
2021/12/30 07:45:54;;;;;;;58.00;2.50;;;;;;;;;;5135794;27;20498;-65
2021/12/30 07:48:23;;;;;;;57.50;2.67;;;;;;;;;;5135503;27;20812;-65
2021/12/30 07:50:50;;;;;;;58.00;2.77;;;;;;;;;;5135578;27;20529;-64
2021/12/30 07:53:18;;;;;;;57.57;2.60;;;;;;;;;;5136063;27;20856;-66
2021/12/30 07:55:45;;;;;;;57.90;2.63;;;;;;;;;;5135866;27;20794;-65
2021/12/30 07:58:12;;;;;;;58.07;2.93;;;;;;;;;;5135391;27;20480;-65
2021/12/30 08:00:39;;;;;;;57.57;2.63;;;;;;;;;;5135520;27;20807;-65
2021/12/30 08:03:06;;;;;;;57.57;2.63;;;;;;;;;;5135850;27;20441;-66
2021/12/30 08:05:35;;;;;;;57.47;2.60;;;;;;;;;;5135236;27;20567;-67
2021/12/30 08:08:02;;;;;;;57.77;2.60;;;;;;;;;;5135182;27;21012;-65
2021/12/30 08:10:29;;;;;;;58.83;2.70;;;;;;;;;;5135177;27;20472;-64
2021/12/30 08:12:57;;;;;;;59.13;2.60;;;;;;;;;;5135348;27;20492;-64
2021/12/30 08:15:25;;;;;;;58.77;2.60;;;;;;;;;;5135156;27;20960;-65
2021/12/30 08:17:54;;;;;;;57.67;2.60;;;;;;;;;;5134908;27;20536;-65
2021/12/30 08:20:22;;;;;;;57.97;2.67;;;;;;;;;;5135311;27;20509;-64
2021/12/30 08:22:51;;;;;;;58.10;2.60;;;;;;;;;;5135015;27;20453;-65
2021/12/30 08:25:19;;;;;;;58.07;2.50;;;;;;;;;;5135089;27;20825;-65
2021/12/30 08:27:46;;;;;;;57.67;2.97;;;;;;;;;;5134901;27;20688;-65
2021/12/30 08:30:14;;;;;;;57.90;2.70;;;;;;;;;;5134788;27;20472;-64
2021/12/30 08:32:42;;;;;;;57.83;2.77;;;;;;;;;;5135030;27;20445;-64
2021/12/30 08:35:11;;;;;;;58.50;3.00;;;;;;;;;;5135054;27;20531;-65
2021/12/30 08:37:38;;;;;;;58.03;2.70;;;;;;;;;;5135705;27;20449;-64
2021/12/30 08:40:08;;;;;;;57.90;2.60;;;;;;;;;;5140210;27;20504;-65
2021/12/30 08:42:35;;;;;;;57.90;2.60;;;;;;;;;;5139969;27;20453;-65
2021/12/30 08:45:02;;;;;;;58.00;3.00;;;;;;;;;;5139528;27;21028;-65
2021/12/30 08:47:30;;;;;;;58.50;2.83;;;;;;;;;;5141068;27;20476;-65
2021/12/30 08:49:58;;;;;;;58.17;2.77;;;;;;;;;;5138711;27;20442;-65
2021/12/30 08:52:26;;;;;;;57.97;2.70;;;;;;;;;;5134223;27;20471;-66
2021/12/30 08:54:56;;;;;;;59.07;2.90;;;;;;;;;;5134502;27;20443;-65
2021/12/30 08:57:25;;;;;;;57.97;2.70;;;;;;;;;;5134133;27;20980;-65
2021/12/30 08:59:52;;;;;;;58.40;2.60;;;;;;;;;;5134247;27;20528;-65
2021/12/30 09:02:19;;;;;;;60.30;2.90;;;;;;;;;;5134352;27;20449;-66
2021/12/30 09:04:47;;;;;;;58.17;2.80;;;;;;;;;;5134194;27;20544;-65
2021/12/30 09:07:16;;;;;;;58.57;2.83;;;;;;;;;;5133909;27;20445;-65
2021/12/30 09:09:43;;;;;;;58.10;3.00;;;;;;;;;;5134125;27;20492;-66
2021/12/30 09:12:10;;;;;;;57.57;2.70;;;;;;;;;;5133884;27;20480;-65
2021/12/30 09:14:39;;;;;;;58.17;2.83;;;;;;;;;;5134079;27;20441;-66
2021/12/30 09:17:06;;;;;;;60.97;2.90;;;;;;;;;;5133881;27;20453;-65
2021/12/30 09:19:33;;;;;;;59.80;3.07;;;;;;;;;;5133946;27;20532;-64
2021/12/30 09:22:01;;;;;;;58.03;2.90;;;;;;;;;;5133836;27;20461;-66
2021/12/30 09:24:28;;;;;;;60.93;4.20;;;;;;;;;;5133604;27;20524;-66
2021/12/30 09:26:55;;;;;;;58.77;2.73;;;;;;;;;;5133903;27;20476;-64
2021/12/30 09:29:22;;;;;;;58.70;2.83;;;;;;;;;;5133420;27;20449;-66
2021/12/30 09:31:51;;;;;;;58.93;3.10;;;;;;;;;;5134034;27;20500;-66
2021/12/30 09:34:19;;;;;;;58.00;2.80;;;;;;;;;;5133603;27;20447;-65
2021/12/30 09:36:46;;;;;;;58.77;3.00;;;;;;;;;;5133587;27;20547;-66
2021/12/30 09:39:14;;;;;;;58.20;2.70;;;;;;;;;;5133524;27;20456;-65
2021/12/30 09:41:44;;;;;;;57.90;2.63;;;;;;;;;;5133654;27;20563;-65
2021/12/30 09:44:11;;;;;;;58.13;2.80;;;;;;;;;;5133540;27;20449;-66
2021/12/30 09:46:39;;;;;;;58.50;2.90;;;;;;;;;;5133443;27;20485;-66
2021/12/30 09:49:09;;;;;;;58.53;2.97;;;;;;;;;;5133173;27;20531;-66
2021/12/30 09:51:36;;;;;;;58.30;2.80;;;;;;;;;;5133220;27;20549;-65
2021/12/30 09:54:04;;;;;;;58.23;3.00;;;;;;;;;;5133469;27;20450;-65
2021/12/30 09:56:32;;;;;;;58.57;2.90;;;;;;;;;;5133318;27;20447;-65
2021/12/30 09:58:59;;;;;;;59.77;2.93;;;;;;;;;;5133061;27;20807;-66
2021/12/30 10:01:26;;;;;;;59.67;2.90;;;;;;;;;;5133270;27;20456;-65
2021/12/30 10:03:56;;;;;;;58.40;2.97;;;;;;;;;;5132619;27;20466;-66
2021/12/30 10:06:25;;;;;;;58.90;3.00;;;;;;;;;;5132424;27;21026;-65
2021/12/30 10:08:56;;;;;;;58.70;2.80;;;;;;;;;;5132964;27;20467;-65
2021/12/30 10:11:23;;;;;;;58.60;3.13;;;;;;;;;;5133271;27;20464;-66
2021/12/30 10:13:51;;;;;;;58.00;2.80;;;;;;;;;;5133063;27;20449;-66
2021/12/30 10:16:18;;;;;;;58.80;2.90;;;;;;;;;;5133056;27;20451;-65
2021/12/30 10:18:47;;;;;;;59.57;2.97;;;;;;;;;;5132649;27;20950;-65
2021/12/30 10:21:15;;;;;;;59.83;3.40;;;;;;;;;;5133075;27;20475;-65
2021/12/30 10:23:45;;;;;;;58.40;2.83;;;;;;;;;;5132982;27;20532;-65
2021/12/30 10:26:12;;;;;;;58.60;2.73;;;;;;;;;;5132921;27;20908;-66
2021/12/30 10:28:40;;;;;;;58.87;3.00;;;;;;;;;;5132502;27;20527;-66
2021/12/30 10:31:18;;;;;;;57.77;2.60;;;;;;;;;;5132579;27;20522;-67
2021/12/30 10:33:49;;;;;;;58.27;3.00;;;;;;;;;;5132912;27;20524;-65
2021/12/30 10:36:17;;;;;;;58.47;2.87;;;;;;;;;;5132801;27;20528;-66
2021/12/30 10:38:46;;;;;;;58.50;3.17;;;;;;;;;;5132623;27;20472;-65
2021/12/30 10:41:13;;;;;;;58.17;2.80;;;;;;;;;;5132697;27;20465;-65
2021/12/30 10:43:46;;;;;;;58.20;2.80;;;;;;;;;;5132512;27;20463;-65
2021/12/30 10:46:18;;;;;;;58.17;2.77;;;;;;;;;;5132566;27;21021;-65
2021/12/30 10:48:50;;;;;;;59.00;2.97;;;;;;;;;;5132549;27;20548;-65
2021/12/30 10:51:18;;;;;;;58.07;2.90;;;;;;;;;;5132643;27;20836;-65
2021/12/30 10:53:47;;;;;;;58.13;2.80;;;;;;;;;;5132503;27;20440;-65
2021/12/30 10:56:24;;;;;;;58.27;2.90;;;;;;;;;;5132407;27;20448;-66
2021/12/30 10:58:52;;;;;;;58.40;2.73;;;;;;;;;;5132228;27;20451;-65
2021/12/30 11:01:20;;;;;;;57.93;2.80;;;;;;;;;;5132567;27;20457;-64
2021/12/30 11:03:57;;;;;;;58.27;2.97;;;;;;;;;;5132361;27;20492;-65
2021/12/30 11:06:24;;;;;;;58.40;3.00;;;;;;;;;;5132408;27;20568;-65
2021/12/30 11:09:04;;;;;;;57.87;2.70;;;;;;;;;;5132153;27;20944;-65
2021/12/30 11:11:32;;;;;;;58.17;2.80;;;;;;;;;;5132277;27;21055;-66
2021/12/30 11:14:00;;;;;;;58.27;2.83;;;;;;;;;;5132576;27;20448;-65
2021/12/30 11:16:27;;;;;;;58.20;2.80;;;;;;;;;;5134284;27;20437;-65
2021/12/30 11:18:56;;;;;;;59.10;2.90;;;;;;;;;;5136070;27;20464;-68
2021/12/30 11:21:42;;;;;;;58.40;2.77;;;;;;;;;;5136381;27;20575;-66
2021/12/30 11:24:12;;;;;;;58.73;2.93;;;;;;;;;;5136548;27;20455;-65
2021/12/30 11:26:39;;;;;;;58.57;2.90;;;;;;;;;;5136628;27;20519;-65
2021/12/30 11:29:07;;;;;;;58.37;2.57;;;;;;;;;;5135952;27;20532;-65
2021/12/30 11:31:35;;;;;;;58.50;2.87;;;;;;;;;;5135881;27;20471;-65
2021/12/30 11:34:02;;;;;;;58.20;2.77;;;;;;;;;;5136016;27;20451;-65
2021/12/30 11:36:29;;;;;;;58.97;2.87;;;;;;;;;;5136408;27;20468;-66
2021/12/30 11:38:57;;;;;;;58.87;2.70;;;;;;;;;;5135849;27;20477;-65
2021/12/30 11:41:28;;;;;;;58.10;2.90;;;;;;;;;;5135848;27;20555;-65
2021/12/30 11:43:55;;;;;;;58.47;3.00;;;;;;;;;;5135827;27;20445;-68
2021/12/30 11:46:39;;;;;;;59.70;3.20;;;;;;;;;;5135642;27;20571;-65
2021/12/30 11:49:06;;;;;;;58.70;2.73;;;;;;;;;;5135670;27;20447;-66
2021/12/30 11:51:42;;;;;;;58.83;2.80;;;;;;;;;;5135646;27;20465;-66
2021/12/30 11:54:28;;;;;;;58.37;2.97;;;;;;;;;;5135691;27;20448;-66
2021/12/30 11:57:14;;;;;;;58.17;2.80;;;;;;;;;;5135908;27;20437;-66
2021/12/30 11:59:42;;;;;;;58.00;2.90;;;;;;;;;;5135693;27;20539;-65
2021/12/30 12:02:29;;;;;;;57.57;2.50;;;;;;;;;;5135526;27;20457;-66
2021/12/30 12:04:56;;;;;;;58.17;2.63;;;;;;;;;;5135234;27;20459;-65
2021/12/30 12:07:23;;;;;;;57.57;2.50;;;;;;;;;;5135142;27;20976;-64
2021/12/30 12:09:51;;;;;;;57.83;2.57;;;;;;;;;;5135629;27;20638;-65
2021/12/30 12:12:31;;;;;;;58.00;2.60;;;;;;;;;;5135151;27;21007;-66
2021/12/30 12:15:01;;;;;;;58.07;2.50;;;;;;;;;;5135359;27;20453;-65
2021/12/30 12:17:31;;;;;;;58.27;2.73;;;;;;;;;;5134892;27;20524;-65
2021/12/30 12:19:58;;;;;;;58.57;3.00;;;;;;;;;;5135162;27;20532;-65
2021/12/30 12:22:30;;;;;;;58.60;3.10;;;;;;;;;;5135324;27;20447;-65
2021/12/30 12:25:08;;;;;;;58.60;3.10;;;;;;;;;;5135141;27;20479;-66
2021/12/30 12:27:36;;;;;;;59.23;3.10;;;;;;;;;;5134037;27;20813;-66
2021/12/30 12:30:06;;;;;;;61.60;3.83;;;;;;;;;;5134848;27;20956;-65
2021/12/30 12:32:38;;;;;;;63.50;5.73;;;;;;;;;;5135055;27;20445;-66
2021/12/30 12:35:06;;;;;;;58.23;2.70;;;;;;;;;;5134862;27;20445;-66
2021/12/30 12:37:51;;;;;;;57.70;2.70;;;;;;;;;;5134695;27;20441;-66
2021/12/30 12:40:39;;;;;;;58.60;2.83;;;;;;;;;;5134604;27;20829;-65
2021/12/30 12:43:26;;;;;;;59.50;3.10;;;;;;;;;;5129975;27;20532;-65
2021/12/30 12:45:56;;;;;;;58.03;2.67;;;;;;;;;;5134816;27;20441;-66
2021/12/30 12:48:28;;;;;;;58.30;2.70;;;;;;;;;;5134491;27;20451;-66
2021/12/30 12:50:56;;;;;;;58.40;2.70;;;;;;;;;;5134368;27;20902;-66
2021/12/30 12:53:38;;;;;;;58.50;2.80;;;;;;;;;;5134641;27;20536;-66
2021/12/30 12:56:06;;;;;;;77.03;6.40;;;;;;;;;;5134580;27;20445;-68
2021/12/30 12:58:36;;;;;;;154.53;21.87;;;;;;;;;;5134223;27;20481;-66
2021/12/30 13:01:05;;;;;;;101.27;10.53;;;;;;;;;;5134262;27;20471;-65
2021/12/30 13:03:35;;;;;;;59.90;3.20;;;;;;;;;;5134338;27;20451;-66
2021/12/30 13:06:03;;;;;;;57.80;2.80;;;;;;;;;;5134371;27;20488;-65
2021/12/30 13:08:31;;;;;;;58.03;2.87;;;;;;;;;;5134041;27;20850;-66
2021/12/30 13:10:59;;;;;;;58.60;2.80;;;;;;;;;;5134163;27;20552;-66
2021/12/30 13:13:29;;;;;;;57.87;2.80;;;;;;;;;;5134076;27;20441;-66
2021/12/30 13:15:57;;;;;;;61.23;3.70;;;;;;;;;;5133988;27;20453;-65
2021/12/30 13:18:26;;;;;;;58.10;2.80;;;;;;;;;;5133719;27;20449;-65
2021/12/30 13:20:53;;;;;;;58.27;2.77;;;;;;;;;;5134059;27;20560;-65
2021/12/30 13:23:30;;;;;;;57.77;2.53;;;;;;;;;;5133953;27;20529;-66
2021/12/30 13:25:59;;;;;;;58.47;2.90;;;;;;;;;;5133852;27;20451;-67
2021/12/30 13:28:26;;;;;;;63.90;4.60;;;;;;;;;;5133586;27;20440;-66
2021/12/30 13:30:53;;;;;;;58.80;2.80;;;;;;;;;;5133900;27;20487;-66
2021/12/30 13:33:20;;;;;;;58.30;2.57;;;;;;;;;;5133849;27;20812;-65
2021/12/30 13:35:49;;;;;;;58.50;3.10;;;;;;;;;;5133665;27;20455;-65
2021/12/30 13:38:16;;;;;;;59.87;3.07;;;;;;;;;;5133250;27;20472;-67
2021/12/30 13:40:45;;;;;;;58.23;2.70;;;;;;;;;;5133402;27;20468;-66
2021/12/30 13:43:13;;;;;;;58.07;3.07;;;;;;;;;;5133730;27;20483;-67
2021/12/30 13:45:41;;;;;;;57.83;2.47;;;;;;;;;;5133712;27;20451;-65
2021/12/30 13:48:10;;;;;;;58.57;3.00;;;;;;;;;;5133379;27;20481;-65
2021/12/30 13:50:38;;;;;;;58.03;2.60;;;;;;;;;;5133387;27;20467;-66
2021/12/30 13:53:06;;;;;;;58.80;2.77;;;;;;;;;;5133266;27;20448;-65
2021/12/30 13:55:36;;;;;;;58.00;2.80;;;;;;;;;;5133285;27;20441;-65
2021/12/30 13:58:05;;;;;;;58.37;2.90;;;;;;;;;;5132995;27;20437;-66
2021/12/30 14:00:36;;;;;;;58.47;2.63;;;;;;;;;;5133359;27;20553;-67
2021/12/30 14:03:05;;;;;;;58.03;2.57;;;;;;;;;;5133127;27;20488;-66
2021/12/30 14:05:32;;;;;;;58.50;2.60;;;;;;;;;;5133108;27;20455;-65
2021/12/30 14:08:03;;;;;;;58.07;2.83;;;;;;;;;;5132743;27;20491;-66
2021/12/30 14:10:45;;;;;;;59.27;2.83;;;;;;;;;;5133333;27;20469;-65
2021/12/30 14:13:12;;;;;;;58.80;3.37;;;;;;;;;;5133250;27;20807;-65
2021/12/30 14:15:39;;;;;;;68.70;5.57;;;;;;;;;;5133188;27;20885;-66
2021/12/30 14:18:08;;;;;;;60.20;3.00;;;;;;;;;;5133478;27;20437;-65
2021/12/30 14:20:35;;;;;;;57.90;2.40;;;;;;;;;;5133522;27;20894;-65
2021/12/30 14:23:02;;;;;;;58.10;2.40;;;;;;;;;;5133496;27;20855;-65
2021/12/30 14:25:31;;;;;;;57.90;2.40;;;;;;;;;;5133514;27;20532;-65
2021/12/30 14:28:00;;;;;;;58.90;2.70;;;;;;;;;;5133132;27;20570;-65
2021/12/30 14:30:31;;;;;;;58.00;2.60;;;;;;;;;;5133223;27;20467;-65
2021/12/30 14:33:11;;;;;;;58.20;2.80;;;;;;;;;;5133339;27;20282;-65
2021/12/30 14:35:38;;;;;;;58.30;2.83;;;;;;;;;;5133245;27;20451;-65
2021/12/30 14:38:06;;;;;;;58.97;2.80;;;;;;;;;;5132596;27;20440;-65